createdAt,value
2022-12-28T00:01:31.014Z,3.33
2022-12-28T00:04:03.178Z,3.25
2022-12-28T00:06:30.196Z,3.05
2022-12-28T00:08:57.429Z,3.60
2022-12-28T00:11:27.692Z,3.20
2022-12-28T00:14:01.064Z,3.50
2022-12-28T00:16:34.063Z,3.20
2022-12-28T00:19:02.997Z,2.90
2022-12-28T00:21:29.763Z,3.35
2022-12-28T00:23:58.702Z,2.85
2022-12-28T00:26:27.483Z,3.15
2022-12-28T00:28:58.342Z,3.22
2022-12-28T00:31:28.714Z,3.20
2022-12-28T00:33:55.296Z,3.10
2022-12-28T00:36:21.802Z,3.13
2022-12-28T00:38:48.275Z,3.00
2022-12-28T00:41:14.750Z,3.60
2022-12-28T00:43:41.286Z,3.55
2022-12-28T00:46:08.551Z,3.15
2022-12-28T00:48:35.258Z,2.65
2022-12-28T00:51:12.209Z,3.30
2022-12-28T00:53:39.502Z,3.50
2022-12-28T00:56:12.137Z,2.88
2022-12-28T00:58:39.123Z,3.20
2022-12-28T01:01:11.082Z,2.97
2022-12-28T01:03:37.635Z,3.30
2022-12-28T01:06:09.049Z,3.63
2022-12-28T01:08:39.588Z,3.35
2022-12-28T01:11:17.836Z,3.10
2022-12-28T01:13:44.562Z,3.45
2022-12-28T01:16:20.480Z,3.53
2022-12-28T01:18:48.000Z,3.25
2022-12-28T01:21:20.525Z,3.55
2022-12-28T01:23:48.404Z,3.50
2022-12-28T01:26:16.342Z,3.25
2022-12-28T01:28:43.092Z,3.42
2022-12-28T01:31:12.819Z,4.13
2022-12-28T01:33:39.911Z,3.50
2022-12-28T01:36:10.365Z,3.60
2022-12-28T01:38:36.984Z,3.72
2022-12-28T01:41:07.241Z,3.90
2022-12-28T01:43:39.432Z,3.58
2022-12-28T01:46:06.315Z,4.15
2022-12-28T01:48:35.336Z,4.30
2022-12-28T01:51:01.851Z,3.60
2022-12-28T01:53:28.534Z,4.10
2022-12-28T01:55:55.094Z,3.97
2022-12-28T01:58:26.303Z,4.22
2022-12-28T02:00:52.852Z,3.60
2022-12-28T02:03:25.964Z,3.97
2022-12-28T02:05:55.920Z,3.42
2022-12-28T02:08:29.483Z,3.50
2022-12-28T02:10:56.214Z,3.38
2022-12-28T02:13:24.619Z,3.53
2022-12-28T02:15:51.740Z,3.80
2022-12-28T02:18:20.571Z,3.58
2022-12-28T02:21:17.525Z,4.07
2022-12-28T02:23:59.188Z,4.13
2022-12-28T02:26:35.477Z,4.03
2022-12-28T02:29:32.759Z,4.43
2022-12-28T02:32:39.936Z,4.22
2022-12-28T02:35:39.192Z,3.70
2022-12-28T02:38:20.141Z,4.05
2022-12-28T02:40:56.046Z,3.90
2022-12-28T02:43:22.564Z,4.18
2022-12-28T02:46:08.623Z,3.97
2022-12-28T02:49:01.869Z,4.15
2022-12-28T02:52:03.469Z,4.10
2022-12-28T02:55:15.995Z,3.95
2022-12-28T02:58:08.739Z,4.07
2022-12-28T03:01:09.211Z,3.70
2022-12-28T03:03:50.827Z,3.92
2022-12-28T03:07:01.108Z,4.47
2022-12-28T03:10:09.058Z,4.55
2022-12-28T03:12:50.921Z,3.88
2022-12-28T03:15:32.174Z,4.05
2022-12-28T03:18:26.665Z,4.20
2022-12-28T03:21:15.213Z,4.10
2022-12-28T03:24:03.583Z,3.70
2022-12-28T03:26:51.945Z,4.10
2022-12-28T03:29:41.231Z,3.97
2022-12-28T03:32:09.003Z,3.95
2022-12-28T03:34:35.752Z,3.97
2022-12-28T03:37:25.757Z,4.25
2022-12-28T03:40:06.540Z,4.05
2022-12-28T03:43:00.402Z,3.72
2022-12-28T03:45:47.441Z,4.20
2022-12-28T03:48:15.923Z,3.88
2022-12-28T03:50:45.671Z,3.97
2022-12-28T03:53:12.443Z,3.92
2022-12-28T03:55:40.462Z,3.72
2022-12-28T03:58:07.113Z,4.10
2022-12-28T04:00:34.211Z,3.50
2022-12-28T04:03:00.828Z,3.35
2022-12-28T04:05:27.379Z,3.53
2022-12-28T04:07:53.946Z,2.90
2022-12-28T04:10:20.418Z,3.35
2022-12-28T04:12:55.777Z,3.63
2022-12-28T04:15:22.326Z,3.83
2022-12-28T04:17:48.884Z,3.30
2022-12-28T04:20:15.457Z,3.40
2022-12-28T04:22:41.928Z,3.25
2022-12-28T04:25:08.642Z,3.15
2022-12-28T04:27:35.136Z,3.10
2022-12-28T04:30:01.751Z,3.75
2022-12-28T04:32:29.312Z,3.80
2022-12-28T04:34:55.788Z,3.42
2022-12-28T04:37:22.235Z,3.63
2022-12-28T04:39:55.420Z,3.90
2022-12-28T04:42:25.054Z,3.80
2022-12-28T04:44:51.632Z,3.67
2022-12-28T04:47:18.073Z,4.15
2022-12-28T04:49:44.673Z,3.72
2022-12-28T04:52:11.173Z,3.55
2022-12-28T04:54:37.674Z,2.80
2022-12-28T04:57:04.217Z,3.30
2022-12-28T04:59:30.692Z,2.80
2022-12-28T05:01:57.320Z,2.92
2022-12-28T05:04:26.528Z,2.88
2022-12-28T05:06:53.001Z,3.13
2022-12-28T05:09:19.590Z,3.60
2022-12-28T05:11:47.082Z,3.58
2022-12-28T05:14:13.636Z,3.45
2022-12-28T05:16:40.279Z,3.65
2022-12-28T05:19:06.809Z,3.40
2022-12-28T05:21:33.335Z,3.10
2022-12-28T05:23:59.908Z,3.42
2022-12-28T05:26:29.055Z,3.60
2022-12-28T05:28:56.887Z,3.03
2022-12-28T05:31:23.684Z,3.53
2022-12-28T05:33:50.286Z,3.70
2022-12-28T05:36:18.814Z,3.38
2022-12-28T05:38:46.272Z,4.05
2022-12-28T05:41:18.741Z,3.60
2022-12-28T05:43:46.317Z,3.50
2022-12-28T05:46:21.802Z,3.40
2022-12-28T05:48:48.675Z,3.50
2022-12-28T05:51:18.214Z,3.42
2022-12-28T05:53:45.266Z,3.63
2022-12-28T05:56:14.832Z,3.80
2022-12-28T05:58:45.762Z,3.60
2022-12-28T06:01:18.251Z,3.70
2022-12-28T06:03:46.422Z,3.72
2022-12-28T06:06:16.350Z,3.80
2022-12-28T06:08:44.245Z,3.75
2022-12-28T06:11:13.831Z,3.30
2022-12-28T06:13:40.328Z,3.35
2022-12-28T06:16:07.094Z,3.40
2022-12-28T06:18:34.309Z,3.60
2022-12-28T06:21:28.379Z,3.60
2022-12-28T06:23:59.833Z,3.58
2022-12-28T06:26:29.182Z,4.03
2022-12-28T06:28:56.426Z,3.85
2022-12-28T06:31:28.133Z,3.70
2022-12-28T06:33:57.097Z,3.75
2022-12-28T06:36:26.917Z,4.10
2022-12-28T06:38:54.866Z,4.22
2022-12-28T06:41:22.318Z,3.63
2022-12-28T06:43:50.390Z,4.40
2022-12-28T06:46:19.241Z,4.10
2022-12-28T06:48:45.817Z,3.60
2022-12-28T06:51:13.823Z,3.80
2022-12-28T06:53:40.560Z,4.60
2022-12-28T06:56:19.200Z,4.43
2022-12-28T06:58:47.345Z,4.22
2022-12-28T07:01:16.045Z,4.13
2022-12-28T07:03:44.479Z,4.35
2022-12-28T07:06:11.975Z,4.47
2022-12-28T07:08:40.045Z,4.35
2022-12-28T07:11:11.809Z,4.38
2022-12-28T07:13:38.636Z,4.20
2022-12-28T07:16:07.965Z,4.60
2022-12-28T07:18:34.723Z,3.33
2022-12-28T07:21:06.452Z,3.90
2022-12-28T07:23:34.059Z,4.60
2022-12-28T07:26:15.141Z,4.35
2022-12-28T07:28:44.591Z,4.55
2022-12-28T07:31:13.943Z,4.85
2022-12-28T07:33:41.706Z,4.40
2022-12-28T07:36:10.213Z,4.63
2022-12-28T07:38:36.745Z,4.80
2022-12-28T07:41:14.845Z,5.05
2022-12-28T07:43:41.677Z,4.57
2022-12-28T07:46:11.910Z,4.10
2022-12-28T07:48:39.725Z,4.50
2022-12-28T07:51:13.030Z,4.68
2022-12-28T07:53:40.878Z,4.43
2022-12-28T07:56:08.168Z,4.40
2022-12-28T07:58:35.103Z,4.55
2022-12-28T08:01:13.028Z,5.03
2022-12-28T08:03:41.784Z,5.30
2022-12-28T08:06:14.039Z,5.85
2022-12-28T08:08:45.364Z,5.50
2022-12-28T08:11:14.242Z,4.70
2022-12-28T08:13:43.021Z,4.55
2022-12-28T08:16:12.556Z,4.70
2022-12-28T08:18:40.377Z,4.53
2022-12-28T08:21:10.850Z,4.55
2022-12-28T08:23:40.126Z,4.55
2022-12-28T08:26:22.006Z,4.75
2022-12-28T08:28:50.916Z,4.93
2022-12-28T08:31:23.499Z,5.10
2022-12-28T08:33:51.061Z,4.22
2022-12-28T08:36:17.841Z,4.65
2022-12-28T08:38:45.428Z,4.60
2022-12-28T08:41:14.564Z,4.72
2022-12-28T08:43:41.062Z,4.78
2022-12-28T08:46:13.900Z,5.07
2022-12-28T08:48:40.986Z,4.80
2022-12-28T08:51:12.928Z,4.78
2022-12-28T08:56:11.512Z,4.82
2022-12-28T08:58:39.317Z,4.38
2022-12-28T09:01:11.809Z,4.40
2022-12-28T09:03:40.608Z,4.80
2022-12-28T09:06:10.127Z,4.70
2022-12-28T09:08:37.886Z,4.82
2022-12-28T09:11:07.152Z,4.85
2022-12-28T09:13:34.298Z,5.03
2022-12-28T09:16:04.234Z,4.60
2022-12-28T09:18:31.352Z,4.97
2022-12-28T09:21:03.641Z,4.47
2022-12-28T09:23:30.157Z,4.50
2022-12-28T09:25:56.612Z,4.50
2022-12-28T09:28:23.121Z,4.38
2022-12-28T09:30:49.558Z,4.32
2022-12-28T09:33:50.911Z,3.85
2022-12-28T09:36:21.139Z,4.32
2022-12-28T09:38:48.744Z,4.50
2022-12-28T09:41:27.369Z,4.10
2022-12-28T09:44:08.626Z,4.35
2022-12-28T09:46:38.622Z,4.30
2022-12-28T09:49:11.479Z,4.40
2022-12-28T09:51:50.786Z,4.45
2022-12-28T09:54:17.581Z,4.63
2022-12-28T09:56:47.784Z,4.50
2022-12-28T09:59:22.860Z,4.78
2022-12-28T10:01:57.257Z,4.40
2022-12-28T10:04:24.755Z,4.40
2022-12-28T10:06:51.417Z,4.50
2022-12-28T10:09:40.816Z,4.30
2022-12-28T10:12:19.869Z,4.25
2022-12-28T10:14:50.476Z,4.18
2022-12-28T10:17:23.299Z,4.47
2022-12-28T10:19:50.315Z,4.18
2022-12-28T10:22:19.616Z,3.90
2022-12-28T10:24:47.181Z,3.92
2022-12-28T10:27:20.284Z,3.90
2022-12-28T10:29:46.753Z,4.10
2022-12-28T10:32:13.497Z,3.63
2022-12-28T10:35:00.509Z,4.15
2022-12-28T10:37:32.488Z,4.13
2022-12-28T10:42:36.863Z,3.85
2022-12-28T10:45:08.111Z,4.13
2022-12-28T10:47:43.059Z,4.18
2022-12-28T10:50:48.060Z,4.32
2022-12-28T10:53:26.445Z,4.35
2022-12-28T10:56:06.022Z,4.07
2022-12-28T10:58:34.227Z,3.90
2022-12-28T11:01:03.581Z,3.85
2022-12-28T11:03:35.361Z,3.60
2022-12-28T11:06:09.621Z,3.95
2022-12-28T11:08:37.468Z,4.22
2022-12-28T11:11:04.347Z,4.00
2022-12-28T11:13:30.919Z,3.75
2022-12-28T11:15:57.775Z,3.58
2022-12-28T11:18:30.756Z,3.92
2022-12-28T11:20:59.773Z,3.75
2022-12-28T11:23:31.648Z,4.00
2022-12-28T11:28:28.732Z,3.80
2022-12-28T11:30:56.543Z,3.55
2022-12-28T11:33:24.932Z,3.50
2022-12-28T11:35:59.439Z,3.63
2022-12-28T11:38:44.141Z,3.58
2022-12-28T11:41:18.874Z,4.03
2022-12-28T11:43:53.486Z,3.85
2022-12-28T11:46:22.828Z,3.75
2022-12-28T11:49:04.506Z,3.25
2022-12-28T11:51:33.201Z,3.47
2022-12-28T11:54:04.369Z,3.47
2022-12-28T11:56:45.734Z,3.37
2022-12-28T11:59:26.119Z,3.35
2022-12-28T12:02:00.294Z,3.58
2022-12-28T12:04:29.778Z,3.53
2022-12-28T12:07:01.307Z,3.58
2022-12-28T12:09:32.683Z,3.58
2022-12-28T12:12:01.504Z,3.30
2022-12-28T12:14:42.772Z,3.45
2022-12-28T12:17:45.039Z,3.10
2022-12-28T12:20:30.498Z,3.30
2022-12-28T12:23:05.411Z,3.05
2022-12-28T12:25:37.883Z,2.88
2022-12-28T12:28:15.653Z,3.00
2022-12-28T12:30:44.178Z,3.00
2022-12-28T12:33:23.766Z,3.10
2022-12-28T12:36:03.611Z,2.83
2022-12-28T12:39:16.553Z,2.80
2022-12-28T12:42:01.621Z,3.55
2022-12-28T12:44:47.724Z,3.08
2022-12-28T12:47:36.831Z,2.92
2022-12-28T12:50:20.530Z,3.05
2022-12-28T12:53:11.904Z,2.80
2022-12-28T12:56:09.493Z,2.80
2022-12-28T12:58:48.425Z,2.88
2022-12-28T13:01:29.109Z,2.88
2022-12-28T13:04:01.640Z,2.67
2022-12-28T13:06:30.970Z,2.65
2022-12-28T13:09:05.273Z,2.80
2022-12-28T13:11:37.547Z,3.13
2022-12-28T13:14:05.039Z,2.78
2022-12-28T13:16:32.676Z,2.75
2022-12-28T13:19:00.650Z,2.83
2022-12-28T13:21:33.412Z,2.58
2022-12-28T13:24:00.363Z,2.42
2022-12-28T13:26:29.663Z,2.80
2022-12-28T13:29:02.024Z,2.50
2022-12-28T13:31:38.059Z,2.65
2022-12-28T13:34:35.025Z,2.75
2022-12-28T13:37:07.669Z,2.80
2022-12-28T13:39:41.621Z,2.80
2022-12-28T13:42:17.094Z,2.63
2022-12-28T13:44:52.506Z,2.65
2022-12-28T13:47:27.333Z,2.65
2022-12-28T13:50:05.733Z,2.72
2022-12-28T13:52:50.756Z,2.78
2022-12-28T13:55:22.525Z,3.13
2022-12-28T13:57:58.867Z,2.40
2022-12-28T14:00:26.782Z,2.60
2022-12-28T14:02:55.404Z,2.80
2022-12-28T14:05:25.902Z,3.28
2022-12-28T14:07:54.330Z,2.75
2022-12-28T14:10:21.496Z,2.70
2022-12-28T14:12:48.740Z,3.10
2022-12-28T14:15:16.716Z,3.35
2022-12-28T14:17:45.448Z,3.17
2022-12-28T14:20:12.276Z,3.22
2022-12-28T14:22:40.332Z,3.00
2022-12-28T14:25:12.879Z,3.30
2022-12-28T14:27:44.891Z,3.25
2022-12-28T14:33:26.125Z,2.70
2022-12-28T14:35:56.448Z,3.03
2022-12-28T14:38:27.402Z,2.85
2022-12-28T14:40:56.220Z,3.03
2022-12-28T14:43:36.784Z,2.70
2022-12-28T14:46:37.148Z,3.10
2022-12-28T14:49:28.531Z,2.85
2022-12-28T14:52:16.395Z,2.90
2022-12-28T14:54:50.008Z,3.08
2022-12-28T14:57:33.856Z,2.30
2022-12-28T15:00:07.203Z,2.55
2022-12-28T15:02:33.798Z,2.42
2022-12-28T15:05:01.456Z,2.90
2022-12-28T15:07:27.969Z,2.70
2022-12-28T15:09:54.481Z,2.45
2022-12-28T15:12:21.818Z,3.10
2022-12-28T15:14:49.709Z,3.58
2022-12-28T15:17:16.599Z,4.32
2022-12-28T15:19:44.989Z,3.78
2022-12-28T15:22:12.511Z,3.38
2022-12-28T15:24:40.207Z,3.03
2022-12-28T15:27:06.734Z,3.35
2022-12-28T15:30:04.280Z,4.30
2022-12-28T15:32:19.752Z,3.55
2022-12-28T15:34:46.203Z,3.35
2022-12-28T15:37:12.710Z,2.80
2022-12-28T15:39:39.221Z,3.42
2022-12-28T15:42:05.708Z,3.20
2022-12-28T15:44:32.223Z,3.13
2022-12-28T15:46:58.791Z,2.80
2022-12-28T15:49:25.319Z,2.95
2022-12-28T15:51:51.831Z,2.85
2022-12-28T15:54:18.765Z,2.55
2022-12-28T15:56:54.661Z,2.88
2022-12-28T15:59:21.426Z,3.10
2022-12-28T16:01:48.323Z,3.33
2022-12-28T16:04:15.161Z,3.00
2022-12-28T16:06:44.646Z,2.95
2022-12-28T16:09:13.322Z,3.00
2022-12-28T16:11:39.868Z,3.00
2022-12-28T16:14:07.672Z,3.58
2022-12-28T16:16:38.083Z,3.20
2022-12-28T16:19:06.870Z,2.72
2022-12-28T16:21:33.535Z,3.20
2022-12-28T16:24:00.588Z,3.95
2022-12-28T16:26:27.874Z,3.25
2022-12-28T16:28:54.669Z,3.00
2022-12-28T16:31:31.478Z,3.03
2022-12-28T16:34:00.662Z,2.80
2022-12-28T16:36:28.020Z,3.00
2022-12-28T16:38:54.632Z,3.17
2022-12-28T16:41:21.837Z,2.75
2022-12-28T16:43:49.565Z,3.30
2022-12-28T16:46:16.677Z,3.38
2022-12-28T16:48:43.729Z,2.70
2022-12-28T16:51:11.744Z,2.70
2022-12-28T16:53:38.548Z,2.65
2022-12-28T16:56:06.310Z,2.67
2022-12-28T16:58:33.385Z,2.50
2022-12-28T17:01:05.897Z,2.50
2022-12-28T17:03:32.621Z,3.45
2022-12-28T17:05:59.271Z,2.85
2022-12-28T17:08:26.193Z,2.85
2022-12-28T17:10:52.880Z,2.63
2022-12-28T17:13:19.398Z,2.60
2022-12-28T17:15:45.951Z,2.15
2022-12-28T17:18:13.758Z,2.08
2022-12-28T17:20:40.916Z,2.58
2022-12-28T17:23:08.434Z,3.28
2022-12-28T17:25:35.917Z,2.95
2022-12-28T17:28:03.316Z,2.97
2022-12-28T17:30:29.841Z,2.47
2022-12-28T17:32:56.597Z,2.90
2022-12-28T17:35:23.341Z,2.92
2022-12-28T17:37:50.774Z,2.50
2022-12-28T17:40:17.630Z,2.40
2022-12-28T17:42:44.354Z,2.60
2022-12-28T17:45:12.173Z,2.35
2022-12-28T17:47:38.899Z,2.10
2022-12-28T17:50:06.543Z,2.22
2022-12-28T17:52:33.171Z,2.60
2022-12-28T17:54:59.742Z,2.25
2022-12-28T17:57:26.210Z,2.22
2022-12-28T17:59:52.686Z,3.30
2022-12-28T18:02:19.260Z,2.70
2022-12-28T18:04:45.920Z,3.80
2022-12-28T18:07:12.396Z,5.90
2022-12-28T18:09:38.857Z,5.75
2022-12-28T18:12:05.409Z,5.60
2022-12-28T18:14:31.873Z,2.60
2022-12-28T18:16:58.483Z,2.95
2022-12-28T18:19:25.130Z,2.60
2022-12-28T18:21:51.862Z,5.20
2022-12-28T18:24:20.867Z,3.63
2022-12-28T18:26:48.088Z,5.70
2022-12-28T18:29:14.858Z,3.42
2022-12-28T18:31:41.468Z,6.18
2022-12-28T18:34:08.119Z,4.93
2022-12-28T18:36:34.625Z,4.43
2022-12-28T18:39:02.698Z,4.00
2022-12-28T18:41:33.972Z,3.67
2022-12-28T18:44:02.786Z,4.72
2022-12-28T18:46:29.765Z,4.03
2022-12-28T18:48:56.681Z,4.25
2022-12-28T18:51:23.511Z,4.22
2022-12-28T18:53:50.854Z,4.07
2022-12-28T18:56:21.426Z,4.15
2022-12-28T18:58:56.181Z,4.10
2022-12-28T19:04:15.931Z,4.45
2022-12-28T19:06:43.491Z,4.20
2022-12-28T19:09:10.806Z,4.80
2022-12-28T19:11:38.516Z,4.20
2022-12-28T19:14:07.561Z,5.10
2022-12-28T19:16:34.952Z,4.80
2022-12-28T19:19:01.769Z,4.40
2022-12-28T19:21:31.606Z,4.38
2022-12-28T19:24:15.150Z,3.47
2022-12-28T19:26:42.979Z,4.15
2022-12-28T19:29:11.947Z,5.13
2022-12-28T19:31:38.595Z,4.03
2022-12-28T19:34:05.112Z,4.28
2022-12-28T19:36:32.720Z,3.78
2022-12-28T19:38:59.805Z,4.38
2022-12-28T19:41:26.361Z,3.63
2022-12-28T19:43:53.292Z,3.60
2022-12-28T19:46:21.993Z,3.85
2022-12-28T19:48:51.722Z,3.88
2022-12-28T19:51:18.323Z,5.13
2022-12-28T19:53:44.890Z,3.47
2022-12-28T19:56:13.379Z,3.90
2022-12-28T19:58:40.463Z,3.25
2022-12-28T20:01:14.497Z,3.40
2022-12-28T20:03:42.085Z,3.28
2022-12-28T20:06:14.822Z,3.58
2022-12-28T20:08:46.110Z,3.13
2022-12-28T20:11:12.633Z,3.80
2022-12-28T20:13:39.146Z,3.55
2022-12-28T20:16:06.410Z,3.20
2022-12-28T20:18:33.127Z,3.80
2022-12-28T20:21:21.490Z,3.35
2022-12-28T20:23:53.114Z,3.92
2022-12-28T20:26:23.555Z,4.10
2022-12-28T20:28:50.877Z,3.60
2022-12-28T20:31:17.828Z,3.80
2022-12-28T20:33:45.282Z,5.78
2022-12-28T20:36:18.073Z,3.33
2022-12-28T20:38:45.435Z,3.40
2022-12-28T20:41:33.356Z,3.47
2022-12-28T20:44:01.790Z,3.10
2022-12-28T20:46:28.615Z,3.90
2022-12-28T20:48:59.202Z,2.60
2022-12-28T20:51:26.432Z,2.80
2022-12-28T20:53:52.927Z,2.97
2022-12-28T20:56:19.551Z,2.90
2022-12-28T20:58:46.276Z,2.70
2022-12-28T21:01:15.432Z,2.90
2022-12-28T21:03:42.307Z,2.70
2022-12-28T21:06:09.011Z,3.05
2022-12-28T21:08:35.611Z,2.72
2022-12-28T21:11:14.500Z,3.15
2022-12-28T21:13:44.450Z,3.10
2022-12-28T21:16:13.531Z,3.20
2022-12-28T21:18:40.891Z,2.85
2022-12-28T21:21:14.286Z,2.88
2022-12-28T21:23:40.733Z,2.60
2022-12-28T21:26:11.261Z,2.63
2022-12-28T21:28:37.775Z,2.85
2022-12-28T21:31:06.091Z,2.75
2022-12-28T21:33:33.295Z,2.72
2022-12-28T21:36:00.351Z,2.75
2022-12-28T21:38:26.955Z,2.83
2022-12-28T21:41:05.373Z,2.92
2022-12-28T21:43:32.202Z,2.60
2022-12-28T21:46:02.485Z,2.78
2022-12-28T21:48:33.673Z,2.67
2022-12-28T21:51:31.000Z,2.72
2022-12-28T21:53:58.214Z,2.83
2022-12-28T21:56:28.930Z,2.63
2022-12-28T21:58:56.203Z,2.70
2022-12-28T22:01:42.093Z,3.00
2022-12-28T22:04:32.317Z,2.85
2022-12-28T22:06:59.230Z,3.08
2022-12-28T22:09:44.496Z,3.17
2022-12-28T22:12:30.367Z,2.92
2022-12-28T22:15:15.784Z,2.75
2022-12-28T22:17:43.325Z,2.80
2022-12-28T22:20:12.389Z,2.80
2022-12-28T22:22:39.936Z,3.13
2022-12-28T22:25:07.246Z,2.92
2022-12-28T22:27:33.842Z,2.70
2022-12-28T22:30:00.336Z,3.10
2022-12-28T22:32:27.206Z,3.20
2022-12-28T22:34:53.677Z,3.05
2022-12-28T22:37:20.206Z,2.75
2022-12-28T22:39:46.688Z,2.67
2022-12-28T22:42:15.571Z,2.72
2022-12-28T22:44:42.256Z,2.70
2022-12-28T22:47:08.933Z,3.00
2022-12-28T22:49:35.417Z,2.90
2022-12-28T22:52:01.941Z,3.17
2022-12-28T22:54:28.386Z,2.80
2022-12-28T22:56:54.870Z,2.80
2022-12-28T22:59:21.363Z,2.63
2022-12-28T23:01:48.368Z,3.13
2022-12-28T23:04:15.601Z,2.95
2022-12-28T23:06:42.046Z,2.90
2022-12-28T23:09:08.568Z,3.40
2022-12-28T23:11:37.740Z,2.70
2022-12-28T23:14:24.612Z,3.10
2022-12-28T23:16:51.203Z,3.38
2022-12-28T23:19:37.095Z,2.75
2022-12-28T23:22:24.133Z,2.63
2022-12-28T23:25:09.244Z,3.03
2022-12-28T23:27:42.524Z,2.95
2022-12-28T23:30:12.867Z,2.80
2022-12-28T23:32:42.642Z,2.75
2022-12-28T23:35:09.413Z,2.60
2022-12-28T23:37:35.996Z,3.10
2022-12-28T23:40:03.190Z,2.55
2022-12-28T23:42:29.647Z,2.83
2022-12-28T23:44:56.107Z,2.88
2022-12-28T23:47:22.581Z,3.00
2022-12-28T23:49:49.068Z,2.63
2022-12-28T23:52:16.373Z,2.60
2022-12-28T23:54:45.040Z,2.90
2022-12-28T23:57:11.481Z,2.63
2022-12-28T23:59:37.916Z,2.95
